Time;durP1;ratioP1;P1;durP2;ratioP2;P2;SDS_P1;SDS_P2;PMS_P1;PMS_P2;Temp;Humidity;BMP_temperature;BMP_pressure;BME280_temperature;BME280_humidity;BME280_pressure;Samples;Min_cycle;Max_cycle;Signal;HPM_P1;HPM_P2
2021/09/01 00:00:06;;;;;;;8.30;5.33;;;16.60;99.90;;;;;;5004468;28;20550;-83
2021/09/01 00:02:33;;;;;;;10.93;5.70;;;16.50;99.90;;;;;;5000901;28;20498;-82
2021/09/01 00:05:02;;;;;;;13.63;5.70;;;16.60;99.90;;;;;;4999046;28;20820;-83
2021/09/01 00:07:28;;;;;;;11.20;5.17;;;16.60;99.90;;;;;;5003931;28;20470;-84
2021/09/01 00:09:57;;;;;;;6.93;5.80;;;16.60;99.90;;;;;;5000230;28;20474;-82
2021/09/01 00:12:24;;;;;;;8.67;5.90;;;16.60;99.90;;;;;;5000351;28;20832;-82
2021/09/01 00:14:51;;;;;;;8.20;5.67;;;16.60;99.90;;;;;;5003054;28;20757;-85
2021/09/01 00:17:18;;;;;;;6.43;5.27;;;16.60;99.90;;;;;;4999608;28;20483;-84
2021/09/01 00:19:45;;;;;;;11.83;5.53;;;16.60;99.90;;;;;;4998092;28;20506;-82
2021/09/01 00:22:13;;;;;;;12.70;5.70;;;16.60;99.90;;;;;;5008544;28;20468;-82
2021/09/01 00:24:41;;;;;;;11.93;6.07;;;16.60;99.90;;;;;;5003802;28;20463;-83
2021/09/01 00:27:08;;;;;;;9.67;5.57;;;16.70;99.90;;;;;;4997355;28;20467;-82
2021/09/01 00:29:36;;;;;;;9.27;5.97;;;16.60;99.90;;;;;;5006066;28;20589;-82
2021/09/01 00:32:04;;;;;;;7.83;5.40;;;16.70;99.90;;;;;;5003539;28;20465;-82
2021/09/01 00:34:31;;;;;;;9.90;4.90;;;16.70;99.90;;;;;;5003094;28;20467;-83
2021/09/01 00:36:58;;;;;;;9.93;5.57;;;16.70;99.90;;;;;;5000868;28;20459;-84
2021/09/01 00:39:27;;;;;;;8.33;5.73;;;16.70;99.90;;;;;;5003576;28;20506;-84
2021/09/01 00:41:55;;;;;;;10.60;6.37;;;16.70;99.90;;;;;;5004928;28;20641;-82
2021/09/01 00:44:25;;;;;;;7.97;5.97;;;16.80;99.90;;;;;;4999507;28;20438;-85
2021/09/01 00:46:53;;;;;;;7.57;6.27;;;16.70;99.90;;;;;;5000503;28;20467;-82
2021/09/01 00:49:21;;;;;;;8.83;6.10;;;16.80;99.90;;;;;;5001861;28;21010;-86
2021/09/01 00:51:49;;;;;;;7.70;6.20;;;16.80;99.90;;;;;;5003597;28;20466;-81
2021/09/01 00:54:19;;;;;;;10.93;6.80;;;16.80;99.90;;;;;;4999583;28;20471;-82
2021/09/01 00:56:51;;;;;;;8.40;5.80;;;16.80;99.90;;;;;;5000250;28;20470;-84
2021/09/01 00:59:18;;;;;;;11.80;6.80;;;16.80;99.90;;;;;;4994365;28;20584;-83
2021/09/01 01:01:45;;;;;;;8.63;5.20;;;16.80;99.90;;;;;;5004311;28;20548;-83
2021/09/01 01:04:12;;;;;;;9.47;5.80;;;16.80;99.90;;;;;;4998004;28;20805;-82
2021/09/01 01:06:41;;;;;;;11.50;6.33;;;16.80;99.90;;;;;;5004643;28;20499;-82
2021/09/01 01:09:09;;;;;;;11.47;6.17;;;16.80;99.90;;;;;;5003732;28;20464;-82
2021/09/01 01:11:35;;;;;;;9.53;6.53;;;16.80;99.90;;;;;;5002186;28;20557;-83
2021/09/01 01:14:04;;;;;;;10.90;6.90;;;16.90;99.90;;;;;;5002417;28;20459;-82
2021/09/01 01:16:31;;;;;;;15.37;6.57;;;16.90;99.90;;;;;;5004394;28;20494;-82
2021/09/01 01:18:59;;;;;;;7.37;6.17;;;16.90;99.90;;;;;;5002044;28;20502;-83
2021/09/01 01:21:29;;;;;;;8.33;6.10;;;16.90;99.90;;;;;;5000751;28;20537;-82
2021/09/01 01:23:58;;;;;;;13.27;5.87;;;16.90;99.90;;;;;;4997883;28;20478;-81
2021/09/01 01:26:28;;;;;;;10.43;6.83;;;16.90;99.90;;;;;;5001208;28;20466;-83
2021/09/01 01:28:57;;;;;;;10.70;6.50;;;16.90;99.90;;;;;;5001383;28;20538;-82
2021/09/01 01:31:25;;;;;;;10.27;6.60;;;16.90;99.90;;;;;;5003826;28;20503;-82
2021/09/01 01:33:53;;;;;;;11.83;6.50;;;16.90;99.90;;;;;;5005221;28;20469;-81
2021/09/01 01:36:21;;;;;;;7.97;6.50;;;16.90;99.90;;;;;;4996861;28;20481;-83
2021/09/01 01:38:48;;;;;;;10.50;6.57;;;16.90;99.90;;;;;;4997846;28;20574;-85
2021/09/01 01:41:15;;;;;;;9.77;6.20;;;16.90;99.90;;;;;;5002549;28;20474;-85
2021/09/01 01:43:47;;;;;;;11.20;6.23;;;17.00;99.90;;;;;;5000426;28;21178;-83
2021/09/01 01:46:15;;;;;;;13.20;7.03;;;16.90;99.90;;;;;;5000423;28;20474;-82
2021/09/01 01:48:43;;;;;;;8.50;6.33;;;17.00;99.90;;;;;;5001545;28;20452;-82
2021/09/01 01:51:11;;;;;;;12.60;6.33;;;17.00;99.90;;;;;;4999951;28;20477;-84
2021/09/01 01:53:38;;;;;;;11.50;6.77;;;17.00;99.90;;;;;;4997340;28;20879;-83
2021/09/01 01:56:06;;;;;;;11.43;7.47;;;17.00;99.90;;;;;;5002113;28;20547;-82
2021/09/01 01:58:33;;;;;;;8.33;6.40;;;17.00;99.90;;;;;;5004123;28;20485;-84
2021/09/01 02:01:02;;;;;;;13.00;6.67;;;17.00;99.90;;;;;;5001441;28;20467;-83
2021/09/01 02:03:28;;;;;;;7.93;6.13;;;17.00;99.90;;;;;;4999546;28;20493;-82
2021/09/01 02:05:55;;;;;;;10.63;6.80;;;17.00;99.90;;;;;;5001421;28;20465;-83
2021/09/01 02:08:22;;;;;;;11.90;6.90;;;17.00;99.90;;;;;;5001448;28;20462;-82
2021/09/01 02:10:50;;;;;;;14.23;6.63;;;17.00;99.90;;;;;;5001626;28;20469;-82
2021/09/01 02:13:17;;;;;;;14.90;7.37;;;17.00;99.90;;;;;;5001558;28;20458;-82
2021/09/01 02:15:43;;;;;;;10.67;5.50;;;17.00;99.90;;;;;;5002597;28;20679;-84
2021/09/01 02:18:12;;;;;;;13.73;6.73;;;17.00;99.90;;;;;;5000570;28;20459;-82
2021/09/01 02:20:39;;;;;;;8.87;7.33;;;17.00;99.90;;;;;;5003464;28;20496;-83
2021/09/01 02:23:06;;;;;;;8.17;6.20;;;17.00;99.90;;;;;;5003657;28;20481;-82
2021/09/01 02:25:33;;;;;;;8.73;6.17;;;17.00;99.90;;;;;;4997909;28;20498;-84
2021/09/01 02:28:00;;;;;;;15.03;6.77;;;17.00;99.90;;;;;;5003565;28;20463;-84
2021/09/01 02:30:27;;;;;;;11.27;6.80;;;17.00;99.90;;;;;;5000097;28;20466;-82
2021/09/01 02:32:54;;;;;;;9.97;6.40;;;17.00;99.90;;;;;;4998913;28;20465;-82
2021/09/01 02:35:22;;;;;;;12.93;5.83;;;17.00;99.90;;;;;;5004435;28;20493;-82
2021/09/01 02:37:52;;;;;;;12.83;6.40;;;17.00;99.90;;;;;;5003238;28;20467;-82
2021/09/01 02:40:20;;;;;;;12.17;5.97;;;17.00;99.90;;;;;;4998964;28;20554;-82
2021/09/01 02:42:47;;;;;;;11.80;5.50;;;16.90;99.90;;;;;;4995616;28;20456;-83
2021/09/01 02:45:17;;;;;;;9.40;4.97;;;16.90;99.90;;;;;;5002410;28;20565;-82
2021/09/01 02:47:44;;;;;;;14.00;6.00;;;16.90;99.90;;;;;;5002126;28;20462;-82
2021/09/01 02:50:13;;;;;;;10.60;6.33;;;16.90;99.90;;;;;;5000797;28;20467;-83
2021/09/01 02:52:42;;;;;;;9.50;5.80;;;16.90;99.90;;;;;;4996730;28;20479;-83
2021/09/01 02:55:10;;;;;;;9.07;5.67;;;16.90;99.90;;;;;;4997945;28;20474;-84
2021/09/01 02:57:38;;;;;;;8.83;5.60;;;16.90;99.90;;;;;;5000560;28;20836;-83
2021/09/01 03:00:06;;;;;;;13.03;6.00;;;16.90;99.90;;;;;;5001499;28;20490;-83
2021/09/01 03:02:33;;;;;;;14.40;5.40;;;16.90;99.90;;;;;;5005167;28;20503;-83
2021/09/01 03:05:02;;;;;;;9.97;5.43;;;16.90;99.90;;;;;;5000914;28;21018;-84
2021/09/01 03:07:29;;;;;;;13.87;5.90;;;16.90;99.90;;;;;;5002796;28;20592;-83
2021/09/01 03:09:57;;;;;;;8.80;5.17;;;16.90;99.90;;;;;;5001586;28;20477;-82
2021/09/01 03:12:24;;;;;;;8.83;5.20;;;16.90;99.90;;;;;;5003070;28;20462;-83
2021/09/01 03:14:52;;;;;;;10.27;7.20;;;16.90;99.90;;;;;;5001727;28;20471;-83
2021/09/01 03:17:19;;;;;;;15.47;6.13;;;16.80;99.90;;;;;;4998679;28;20493;-83
2021/09/01 03:19:47;;;;;;;11.83;6.03;;;16.80;99.90;;;;;;4998334;28;20852;-85
2021/09/01 03:22:18;;;;;;;7.23;6.10;;;16.80;99.90;;;;;;5002896;28;20463;-84
2021/09/01 03:24:45;;;;;;;11.37;5.27;;;16.90;99.90;;;;;;4998046;28;20471;-82
2021/09/01 03:27:15;;;;;;;11.53;5.47;;;16.90;99.90;;;;;;5007610;28;20477;-83
2021/09/01 03:29:42;;;;;;;9.80;5.50;;;16.80;99.90;;;;;;5005182;28;20476;-81
2021/09/01 03:32:09;;;;;;;9.40;6.00;;;16.90;99.90;;;;;;4997888;28;20459;-83
2021/09/01 03:34:36;;;;;;;12.27;5.60;;;16.90;99.90;;;;;;4999911;28;20482;-83
2021/09/01 03:37:03;;;;;;;8.43;5.37;;;16.90;99.90;;;;;;5002310;28;20815;-83
2021/09/01 03:39:30;;;;;;;14.00;6.00;;;16.90;99.90;;;;;;4999820;28;20479;-83
2021/09/01 03:41:57;;;;;;;7.40;4.67;;;16.90;99.90;;;;;;5002764;28;20533;-85
2021/09/01 03:44:54;;;;;;;11.37;6.27;;;16.90;99.90;;;;;;4998364;28;20470;-82
2021/09/01 03:47:20;;;;;;;7.40;5.50;;;16.90;99.90;;;;;;5005038;28;20471;-85
2021/09/01 03:49:47;;;;;;;9.07;6.40;;;17.00;99.90;;;;;;5001534;28;20553;-83
2021/09/01 03:52:15;;;;;;;12.93;6.30;;;16.90;99.90;;;;;;5007383;28;20480;-83
2021/09/01 03:54:42;;;;;;;16.77;7.40;;;16.90;99.90;;;;;;4999755;28;20482;-84
2021/09/01 03:57:10;;;;;;;10.47;6.63;;;16.90;99.90;;;;;;5005309;28;21336;-83
2021/09/01 03:59:36;;;;;;;12.83;7.30;;;16.90;99.90;;;;;;5002450;28;20491;-82
2021/09/01 04:02:06;;;;;;;13.80;5.97;;;16.80;99.90;;;;;;5005423;28;20498;-82
2021/09/01 04:04:34;;;;;;;13.37;6.77;;;16.80;99.90;;;;;;5006067;28;20459;-82
2021/09/01 04:07:01;;;;;;;14.07;6.93;;;16.70;99.90;;;;;;4996035;28;20948;-83
2021/09/01 04:09:29;;;;;;;9.07;6.43;;;16.70;99.90;;;;;;4997081;28;21010;-83
2021/09/01 04:11:57;;;;;;;11.43;6.70;;;16.70;99.90;;;;;;5002138;28;20471;-82
2021/09/01 04:14:24;;;;;;;11.17;5.93;;;16.70;99.90;;;;;;5002875;28;20546;-83
2021/09/01 04:16:51;;;;;;;14.30;5.90;;;16.70;99.90;;;;;;5002769;28;20486;-84
2021/09/01 04:19:19;;;;;;;16.50;6.60;;;16.70;99.90;;;;;;5002182;28;20505;-83
2021/09/01 04:21:46;;;;;;;12.47;6.47;;;16.70;99.90;;;;;;4997901;28;20450;-83
2021/09/01 04:27:36;;;;;;;12.60;6.87;;;16.70;99.90;;;;;;5001369;28;20481;-83
2021/09/01 04:30:04;;;;;;;12.03;6.90;;;16.70;99.90;;;;;;4995776;28;20467;-85
2021/09/01 04:32:32;;;;;;;8.37;6.13;;;16.70;99.90;;;;;;4996274;28;20469;-85
2021/09/01 04:35:01;;;;;;;9.00;6.17;;;16.70;99.90;;;;;;4998798;28;20455;-82
2021/09/01 04:37:27;;;;;;;8.77;6.60;;;16.80;99.90;;;;;;5001776;28;20471;-82
2021/09/01 04:39:54;;;;;;;8.87;7.10;;;16.80;99.90;;;;;;4999214;28;20489;-84
2021/09/01 04:42:22;;;;;;;11.90;6.70;;;16.80;99.90;;;;;;4996263;28;20481;-82
2021/09/01 04:44:50;;;;;;;7.37;5.70;;;16.90;99.90;;;;;;5001183;28;20475;-84
2021/09/01 04:47:18;;;;;;;9.30;6.43;;;16.80;99.90;;;;;;5004740;28;20617;-83
2021/09/01 04:49:45;;;;;;;9.83;6.40;;;16.90;99.90;;;;;;5005242;28;20465;-84
2021/09/01 04:52:14;;;;;;;7.73;6.30;;;16.90;99.90;;;;;;5002240;28;20545;-83
2021/09/01 04:54:42;;;;;;;16.60;6.90;;;16.90;99.90;;;;;;4999935;28;20458;-83
2021/09/01 04:57:09;;;;;;;11.13;6.40;;;16.90;99.90;;;;;;5003793;28;20473;-84
2021/09/01 04:59:36;;;;;;;8.50;6.10;;;16.90;99.90;;;;;;5000780;28;20498;-82
2021/09/01 05:02:04;;;;;;;10.83;6.63;;;16.90;99.90;;;;;;5007789;28;20577;-84
2021/09/01 05:04:32;;;;;;;11.50;6.50;;;16.90;99.90;;;;;;4995866;28;20480;-82
2021/09/01 05:07:00;;;;;;;8.70;5.30;;;16.90;99.90;;;;;;4998887;28;20476;-84
2021/09/01 05:09:29;;;;;;;13.33;5.40;;;17.00;99.90;;;;;;4995579;28;20471;-83
2021/09/01 05:11:56;;;;;;;12.80;6.67;;;16.90;99.90;;;;;;5000825;28;20494;-85
2021/09/01 05:14:23;;;;;;;11.77;6.40;;;16.90;99.90;;;;;;5000175;28;20475;-83
2021/09/01 05:16:50;;;;;;;11.83;7.00;;;17.00;99.90;;;;;;5000567;28;20509;-82
2021/09/01 05:19:17;;;;;;;11.43;6.50;;;16.90;99.90;;;;;;5002628;28;20478;-83
2021/09/01 05:21:51;;;;;;;12.17;6.40;;;17.00;99.90;;;;;;4996631;28;20463;-83
2021/09/01 05:24:35;;;;;;;11.23;6.40;;;16.90;99.90;;;;;;4997565;28;20462;-84
2021/09/01 05:27:09;;;;;;;10.30;6.70;;;17.00;99.90;;;;;;5001089;28;20500;-83
2021/09/01 05:29:42;;;;;;;11.80;7.00;;;17.00;99.90;;;;;;4999169;28;20474;-84
2021/09/01 05:32:14;;;;;;;10.50;5.67;;;17.00;99.90;;;;;;4987583;28;20553;-84
2021/09/01 05:34:43;;;;;;;9.83;6.60;;;17.00;99.90;;;;;;4998022;28;20463;-85
2021/09/01 05:37:13;;;;;;;12.50;7.40;;;17.00;99.90;;;;;;4997447;28;20475;-82
2021/09/01 05:39:45;;;;;;;45.73;31.20;;;17.00;99.90;;;;;;4995047;28;20491;-82
2021/09/01 05:42:14;;;;;;;19.63;12.57;;;17.00;99.90;;;;;;4997669;28;20474;-84
2021/09/01 05:44:42;;;;;;;14.40;8.40;;;17.00;99.90;;;;;;4995463;28;20472;-84
2021/09/01 05:47:10;;;;;;;10.53;7.00;;;17.00;99.90;;;;;;4997781;28;20522;-83
2021/09/01 05:49:39;;;;;;;13.53;6.93;;;17.00;99.90;;;;;;4993240;28;20526;-84
2021/09/01 05:52:08;;;;;;;16.30;7.30;;;17.00;99.90;;;;;;4996026;28;20483;-82
2021/09/01 05:54:35;;;;;;;9.17;6.90;;;17.00;99.90;;;;;;4996771;28;20469;-84
2021/09/01 05:57:09;;;;;;;9.67;6.83;;;17.00;99.90;;;;;;4990181;28;20853;-82
2021/09/01 05:59:49;;;;;;;10.00;6.97;;;17.10;99.90;;;;;;4995996;28;20479;-82
2021/09/01 06:02:21;;;;;;;12.50;5.60;;;17.10;99.90;;;;;;4993314;28;20498;-83
2021/09/01 06:04:48;;;;;;;8.33;6.07;;;17.10;99.90;;;;;;4991611;28;20466;-81
2021/09/01 06:07:17;;;;;;;12.63;6.27;;;17.10;99.90;;;;;;4993984;28;20474;-81
2021/09/01 06:09:45;;;;;;;9.50;6.30;;;17.20;99.90;;;;;;4998169;28;20472;-82
2021/09/01 06:12:21;;;;;;;11.47;6.60;;;17.20;99.90;;;;;;4993688;28;20467;-84
2021/09/01 06:14:48;;;;;;;8.50;5.20;;;17.20;99.90;;;;;;4990478;28;20902;-83
2021/09/01 06:17:15;;;;;;;10.77;6.50;;;17.20;99.90;;;;;;4996817;28;20490;-83
2021/09/01 06:19:42;;;;;;;11.70;5.90;;;17.20;99.90;;;;;;4997267;28;20472;-81
2021/09/01 06:22:09;;;;;;;6.97;4.60;;;17.20;99.90;;;;;;4994532;28;20600;-82
2021/09/01 06:24:36;;;;;;;10.43;6.10;;;17.30;99.90;;;;;;4992615;28;20467;-82
2021/09/01 06:27:04;;;;;;;8.60;6.37;;;17.30;99.90;;;;;;4992881;28;20455;-84
2021/09/01 06:29:32;;;;;;;19.60;6.17;;;17.30;99.90;;;;;;4990823;28;20474;-82
2021/09/01 06:31:59;;;;;;;9.60;5.80;;;17.30;99.90;;;;;;4994943;28;20468;-82
2021/09/01 06:34:26;;;;;;;9.53;5.33;;;17.30;99.90;;;;;;4997650;28;20476;-82
2021/09/01 06:36:54;;;;;;;15.97;6.00;;;17.30;99.90;;;;;;4992382;28;20471;-83
2021/09/01 06:39:21;;;;;;;13.10;5.00;;;17.30;99.90;;;;;;4997275;28;20511;-83
2021/09/01 06:41:48;;;;;;;11.40;5.27;;;17.40;99.90;;;;;;4994773;28;20504;-81
2021/09/01 06:44:14;;;;;;;10.20;6.20;;;17.40;99.90;;;;;;4990418;28;20842;-82
2021/09/01 06:46:43;;;;;;;11.30;5.40;;;17.40;99.90;;;;;;4991882;28;20542;-83
2021/09/01 06:49:10;;;;;;;12.20;4.90;;;17.40;99.90;;;;;;4996450;28;20487;-81
2021/09/01 06:51:37;;;;;;;8.67;5.43;;;17.40;99.90;;;;;;4994692;28;20492;-84
2021/09/01 06:54:04;;;;;;;7.30;4.73;;;17.50;99.90;;;;;;4988084;28;21068;-83
2021/09/01 06:56:30;;;;;;;12.87;7.00;;;17.50;99.90;;;;;;4982109;28;20473;-82
2021/09/01 06:58:58;;;;;;;8.80;5.13;;;17.40;99.90;;;;;;4990456;28;20502;-83
2021/09/01 07:01:25;;;;;;;11.80;5.77;;;17.50;99.90;;;;;;4995879;28;20497;-81
2021/09/01 07:03:55;;;;;;;11.20;5.83;;;17.50;99.90;;;;;;4995536;28;20499;-82
2021/09/01 07:06:22;;;;;;;12.63;6.40;;;17.50;99.90;;;;;;4998739;28;20468;-82
2021/09/01 07:08:50;;;;;;;8.63;5.40;;;17.50;99.90;;;;;;5007861;28;20495;-81
2021/09/01 07:11:17;;;;;;;9.87;5.70;;;17.50;99.90;;;;;;5001261;28;20470;-83
2021/09/01 07:13:45;;;;;;;11.80;5.37;;;17.50;99.90;;;;;;5001898;28;20473;-84
2021/09/01 07:16:13;;;;;;;9.33;4.70;;;17.50;99.90;;;;;;4996377;28;20484;-83
2021/09/01 07:18:41;;;;;;;11.40;5.03;;;17.50;99.90;;;;;;4993534;28;20560;-83
2021/09/01 07:21:09;;;;;;;12.50;6.20;;;17.50;99.90;;;;;;5000220;28;20886;-83
2021/09/01 07:23:36;;;;;;;16.93;5.63;;;17.60;99.90;;;;;;5002166;28;20461;-84
2021/09/01 07:26:04;;;;;;;9.43;4.33;;;17.60;99.90;;;;;;5001772;28;20471;-83
2021/09/01 07:28:34;;;;;;;10.70;5.77;;;17.60;99.90;;;;;;5003675;28;20475;-83
2021/09/01 07:31:01;;;;;;;12.33;6.10;;;17.60;99.90;;;;;;4993171;28;21231;-82
2021/09/01 07:33:27;;;;;;;9.33;5.10;;;17.60;99.90;;;;;;4994883;28;21375;-83
2021/09/01 07:35:54;;;;;;;11.80;5.23;;;17.60;99.90;;;;;;4996905;28;20562;-82
2021/09/01 07:38:23;;;;;;;10.40;6.40;;;17.70;99.90;;;;;;5000501;28;21060;-85
2021/09/01 07:40:50;;;;;;;13.17;6.90;;;17.70;99.90;;;;;;4994853;28;20838;-85
2021/09/01 07:43:17;;;;;;;10.07;6.47;;;17.70;99.90;;;;;;4996689;28;20474;-83
2021/09/01 07:45:45;;;;;;;10.57;6.40;;;17.70;99.90;;;;;;4992225;28;20457;-83
2021/09/01 07:48:14;;;;;;;11.70;6.63;;;17.70;99.90;;;;;;4991584;28;20569;-84
2021/09/01 07:50:42;;;;;;;16.47;5.77;;;17.80;99.90;;;;;;4992551;28;20825;-82
2021/09/01 07:53:08;;;;;;;20.03;15.83;;;17.80;99.90;;;;;;5003669;28;20461;-83
2021/09/01 07:55:37;;;;;;;46.93;35.63;;;17.80;99.90;;;;;;5000543;28;20754;-84
2021/09/01 07:58:05;;;;;;;11.40;6.67;;;17.80;99.90;;;;;;4997667;28;20465;-82
2021/09/01 08:00:32;;;;;;;12.87;6.03;;;17.80;99.90;;;;;;4991512;28;20594;-85
2021/09/01 08:02:59;;;;;;;11.50;6.13;;;17.80;99.90;;;;;;4994389;28;20860;-82
2021/09/01 08:05:26;;;;;;;12.30;5.60;;;17.80;99.90;;;;;;4993838;28;21015;-82
2021/09/01 08:07:53;;;;;;;19.10;6.87;;;17.80;99.90;;;;;;5007395;28;20458;-83
2021/09/01 08:10:20;;;;;;;14.40;6.40;;;17.80;99.90;;;;;;5000686;28;20464;-85
2021/09/01 08:12:49;;;;;;;9.50;5.63;;;17.80;99.90;;;;;;4996579;28;20461;-84
2021/09/01 08:15:16;;;;;;;8.33;5.53;;;17.80;99.90;;;;;;4999400;28;20454;-85
2021/09/01 08:17:44;;;;;;;9.17;5.60;;;17.80;99.90;;;;;;5004100;28;20810;-84
2021/09/01 08:20:12;;;;;;;9.60;5.10;;;17.70;99.90;;;;;;5000989;28;20476;-83
2021/09/01 08:22:40;;;;;;;15.33;5.53;;;17.70;99.90;;;;;;5000388;28;20526;-83
2021/09/01 08:25:08;;;;;;;11.60;5.57;;;17.70;99.90;;;;;;5000206;28;20462;-82
2021/09/01 08:27:36;;;;;;;10.57;4.70;;;17.70;99.90;;;;;;5003083;28;20850;-82
2021/09/01 08:30:06;;;;;;;13.53;5.40;;;17.70;99.90;;;;;;4992250;28;20462;-84
2021/09/01 08:32:33;;;;;;;9.97;4.57;;;17.70;99.90;;;;;;5006995;28;20534;-83
2021/09/01 08:35:00;;;;;;;13.70;7.30;;;17.80;99.90;;;;;;4996594;28;20543;-82
2021/09/01 08:37:27;;;;;;;10.03;4.57;;;17.80;99.90;;;;;;5000184;28;20818;-83
2021/09/01 08:39:54;;;;;;;12.73;5.30;;;17.70;99.90;;;;;;4997550;28;20555;-83
2021/09/01 08:42:23;;;;;;;13.53;5.40;;;17.70;99.90;;;;;;4997375;28;20595;-84
2021/09/01 08:44:51;;;;;;;8.83;4.43;;;17.80;99.90;;;;;;4997637;28;20460;-84
2021/09/01 08:47:20;;;;;;;11.67;5.53;;;17.80;99.90;;;;;;5000766;28;20496;-84
2021/09/01 08:49:47;;;;;;;14.70;6.37;;;17.80;99.90;;;;;;4996816;28;20964;-84
2021/09/01 08:52:15;;;;;;;13.60;5.90;;;17.80;99.90;;;;;;4995735;28;20470;-84
2021/09/01 08:54:41;;;;;;;9.73;5.40;;;17.80;99.90;;;;;;4989381;28;20485;-84
2021/09/01 08:57:08;;;;;;;11.10;5.60;;;17.80;99.90;;;;;;4996373;28;20482;-83
2021/09/01 08:59:35;;;;;;;10.70;6.97;;;17.80;99.90;;;;;;4993976;28;20667;-83
2021/09/01 09:02:03;;;;;;;15.10;6.07;;;17.80;99.90;;;;;;4997904;28;20507;-83
2021/09/01 09:04:35;;;;;;;11.70;6.30;;;17.80;99.90;;;;;;4995925;28;21134;-82
2021/09/01 09:07:03;;;;;;;9.80;5.60;;;17.80;99.90;;;;;;4993408;28;20554;-82
2021/09/01 09:09:32;;;;;;;12.57;5.53;;;17.80;99.90;;;;;;4997808;28;20465;-82
2021/09/01 09:12:01;;;;;;;11.87;6.60;;;17.70;99.90;;;;;;5000075;28;20528;-81
2021/09/01 09:14:30;;;;;;;11.10;7.23;;;17.70;99.90;;;;;;4994963;28;20473;-84
2021/09/01 09:17:07;;;;;;;14.67;5.97;;;17.70;99.90;;;;;;4992635;28;20788;-84
2021/09/01 09:19:47;;;;;;;10.70;5.90;;;17.70;99.90;;;;;;4999105;28;20468;-82
2021/09/01 09:22:17;;;;;;;18.60;7.47;;;17.70;99.90;;;;;;4996987;28;20576;-82
2021/09/01 09:24:45;;;;;;;13.40;6.10;;;17.70;99.90;;;;;;4998353;28;20492;-83
2021/09/01 09:27:12;;;;;;;12.07;6.13;;;17.60;99.90;;;;;;4998939;28;20867;-83
2021/09/01 09:29:39;;;;;;;15.93;5.53;;;17.60;99.90;;;;;;4998620;28;20477;-83
2021/09/01 09:32:10;;;;;;;15.10;6.67;;;17.70;99.90;;;;;;4995179;28;20465;-81
2021/09/01 09:34:40;;;;;;;13.03;6.33;;;17.60;99.90;;;;;;4993131;28;20485;-80
2021/09/01 09:37:11;;;;;;;13.63;6.40;;;17.60;99.90;;;;;;4997733;28;20960;-83
2021/09/01 09:39:42;;;;;;;11.50;6.37;;;17.60;99.90;;;;;;4992773;28;21085;-82
2021/09/01 09:42:10;;;;;;;35.77;7.80;;;17.60;99.90;;;;;;5003220;28;20575;-83
2021/09/01 09:44:37;;;;;;;14.53;6.27;;;17.60;99.90;;;;;;4992281;28;20556;-84
2021/09/01 09:47:05;;;;;;;11.80;6.33;;;17.60;99.90;;;;;;4996188;28;20476;-81
2021/09/01 09:49:34;;;;;;;12.10;6.70;;;17.60;99.90;;;;;;4994471;28;20893;-81
2021/09/01 09:52:13;;;;;;;12.53;6.80;;;17.70;99.90;;;;;;4998983;28;20468;-83
2021/09/01 09:54:41;;;;;;;13.03;7.03;;;17.70;99.90;;;;;;4993049;28;20483;-82
2021/09/01 09:57:10;;;;;;;10.70;5.80;;;17.70;99.90;;;;;;4996073;28;20477;-81
2021/09/01 09:59:39;;;;;;;16.90;6.47;;;17.70;99.90;;;;;;4994873;28;20495;-82
2021/09/01 10:02:07;;;;;;;10.43;6.50;;;17.80;99.90;;;;;;4997248;28;20493;-82
2021/09/01 10:04:33;;;;;;;13.33;5.80;;;17.80;99.90;;;;;;4993783;28;20461;-82
2021/09/01 10:07:01;;;;;;;16.50;7.00;;;17.70;99.90;;;;;;4997069;28;20488;-81
2021/09/01 10:09:28;;;;;;;12.93;5.90;;;17.70;99.90;;;;;;4997086;28;20477;-81
2021/09/01 10:12:00;;;;;;;10.63;6.40;;;17.70;99.90;;;;;;4998712;28;20468;-83
2021/09/01 10:14:27;;;;;;;10.77;6.33;;;17.80;99.90;;;;;;4994749;28;21040;-81
2021/09/01 10:16:59;;;;;;;11.37;6.70;;;17.80;99.90;;;;;;4992549;28;20481;-83
2021/09/01 10:19:30;;;;;;;11.80;6.30;;;17.80;99.90;;;;;;4993922;28;20512;-81
2021/09/01 10:21:59;;;;;;;12.00;6.00;;;17.80;99.90;;;;;;4996150;28;20991;-82
2021/09/01 10:24:31;;;;;;;11.17;6.40;;;17.90;99.90;;;;;;4992526;28;20479;-83
2021/09/01 10:27:03;;;;;;;10.07;5.37;;;17.90;99.90;;;;;;4998597;28;21013;-83
2021/09/01 10:29:47;;;;;;;12.60;6.50;;;17.90;99.90;;;;;;4993110;28;20468;-81
2021/09/01 10:32:26;;;;;;;8.67;6.70;;;17.90;99.90;;;;;;4991966;28;20465;-81
2021/09/01 10:35:28;;;;;;;11.33;6.23;;;17.90;99.90;;;;;;5000572;28;20465;-84
2021/09/01 10:37:56;;;;;;;12.63;6.20;;;17.90;99.90;;;;;;4996933;28;20981;-82
2021/09/01 10:41:02;;;;;;;9.10;5.37;;;17.90;99.90;;;;;;4998632;28;20464;-83
2021/09/01 10:43:31;;;;;;;9.73;5.50;;;17.90;99.90;;;;;;4997924;28;20487;-82
2021/09/01 10:45:58;;;;;;;9.20;6.50;;;17.90;99.90;;;;;;5004593;28;20461;-82
2021/09/01 10:48:28;;;;;;;10.57;6.17;;;17.90;99.90;;;;;;5002046;28;20488;-82
2021/09/01 10:50:55;;;;;;;8.37;5.57;;;17.90;99.90;;;;;;4994592;28;20469;-82
2021/09/01 10:53:24;;;;;;;11.07;5.13;;;18.00;99.90;;;;;;4994389;28;20560;-83
2021/09/01 10:56:14;;;;;;;7.93;4.50;;;18.00;99.90;;;;;;4999929;28;20567;-83
2021/09/01 10:58:45;;;;;;;16.07;5.40;;;18.00;99.90;;;;;;4997262;28;21013;-82
2021/09/01 11:01:17;;;;;;;13.67;5.93;;;18.10;99.90;;;;;;4994689;28;20959;-84
2021/09/01 11:03:49;;;;;;;9.30;5.07;;;18.10;99.90;;;;;;5006177;28;20499;-81
2021/09/01 11:06:25;;;;;;;10.87;5.70;;;18.10;99.90;;;;;;5003345;28;20544;-84
2021/09/01 11:09:05;;;;;;;9.90;4.90;;;18.00;99.90;;;;;;4994691;28;20935;-82
2021/09/01 11:11:43;;;;;;;16.40;6.10;;;18.00;99.90;;;;;;4996346;28;20503;-82
2021/09/01 11:14:15;;;;;;;8.50;4.90;;;18.10;99.90;;;;;;4991662;28;20554;-85
2021/09/01 11:16:42;;;;;;;8.90;5.80;;;18.00;99.90;;;;;;5001434;28;20485;-83
2021/09/01 11:19:11;;;;;;;14.07;5.90;;;18.00;99.90;;;;;;5002616;28;20548;-84
2021/09/01 11:21:43;;;;;;;7.60;4.97;;;18.10;99.90;;;;;;4998249;28;20845;-85
2021/09/01 11:24:11;;;;;;;9.40;4.83;;;18.10;99.90;;;;;;4998011;28;20465;-83
2021/09/01 11:26:38;;;;;;;10.47;4.97;;;18.20;99.90;;;;;;5000161;28;20883;-83
2021/09/01 11:29:08;;;;;;;6.00;4.17;;;18.20;99.90;;;;;;5006340;28;20572;-82
2021/09/01 11:31:43;;;;;;;10.63;4.57;;;18.10;99.90;;;;;;5002746;28;20845;-83
2021/09/01 11:34:11;;;;;;;10.17;4.50;;;18.10;99.90;;;;;;4996423;28;20546;-83
2021/09/01 11:36:38;;;;;;;9.73;4.90;;;18.20;99.90;;;;;;4999786;28;20469;-83
2021/09/01 11:39:05;;;;;;;7.43;5.17;;;18.10;99.90;;;;;;4998200;28;20472;-83
2021/09/01 11:41:32;;;;;;;5.03;4.47;;;18.10;99.90;;;;;;4995424;28;20938;-84
2021/09/01 11:44:03;;;;;;;7.33;4.30;;;18.10;99.90;;;;;;4996231;28;20465;-83
2021/09/01 11:46:34;;;;;;;9.80;4.23;;;18.10;99.90;;;;;;5002150;28;20466;-84
2021/09/01 11:49:07;;;;;;;6.33;4.00;;;18.10;99.90;;;;;;4998483;28;20472;-84
2021/09/01 11:51:35;;;;;;;7.97;5.30;;;18.20;99.90;;;;;;4996844;28;20828;-86
2021/09/01 11:54:03;;;;;;;7.87;4.50;;;18.20;99.90;;;;;;4999203;28;20468;-84
2021/09/01 11:56:30;;;;;;;7.87;4.50;;;18.20;99.90;;;;;;4997568;28;20480;-84
2021/09/01 11:59:02;;;;;;;8.70;5.10;;;18.30;99.90;;;;;;4998600;28;20469;-84
2021/09/01 12:01:30;;;;;;;4.87;4.03;;;18.20;99.90;;;;;;4995662;28;20531;-86
2021/09/01 12:03:58;;;;;;;8.93;4.93;;;18.20;99.90;;;;;;4996305;28;21016;-83
2021/09/01 12:06:40;;;;;;;4.83;4.33;;;18.20;99.90;;;;;;4998957;28;21063;-83
2021/09/01 12:09:12;;;;;;;8.90;5.70;;;18.30;99.90;;;;;;4995137;28;20564;-83
2021/09/01 12:11:47;;;;;;;9.17;5.10;;;18.30;99.90;;;;;;4994720;28;20538;-84
2021/09/01 12:14:16;;;;;;;7.43;4.00;;;18.40;99.90;;;;;;4997490;28;20849;-83
2021/09/01 12:16:43;;;;;;;10.30;4.50;;;18.40;99.90;;;;;;4994432;28;20485;-83
2021/09/01 12:19:13;;;;;;;6.30;4.77;;;18.40;99.90;;;;;;4990914;28;20474;-85
2021/09/01 12:21:51;;;;;;;7.60;5.63;;;18.40;99.90;;;;;;4994837;28;20558;-84
2021/09/01 12:24:24;;;;;;;13.10;5.63;;;18.40;99.90;;;;;;4994305;28;20482;-85
2021/09/01 12:26:54;;;;;;;6.40;5.27;;;18.40;99.90;;;;;;4997788;28;20546;-84
2021/09/01 12:29:25;;;;;;;7.73;5.43;;;18.50;99.90;;;;;;4999531;28;20596;-84
2021/09/01 12:31:54;;;;;;;5.97;4.70;;;18.60;99.90;;;;;;4998075;28;21030;-83
2021/09/01 12:34:27;;;;;;;11.33;6.10;;;18.60;99.90;;;;;;4998918;28;20465;-84
2021/09/01 12:37:04;;;;;;;6.90;5.40;;;18.70;99.90;;;;;;4993300;28;20483;-83
2021/09/01 12:39:50;;;;;;;15.07;6.27;;;18.70;99.90;;;;;;4994102;28;20476;-84
2021/09/01 12:42:28;;;;;;;7.73;5.50;;;18.80;99.90;;;;;;4994718;28;20518;-83
2021/09/01 12:44:57;;;;;;;8.70;5.87;;;18.80;99.90;;;;;;4994364;28;20460;-83
2021/09/01 12:47:25;;;;;;;9.03;6.00;;;18.80;99.90;;;;;;5003624;28;20457;-86
2021/09/01 12:49:54;;;;;;;14.40;5.83;;;18.80;99.90;;;;;;4994087;28;21035;-83
2021/09/01 12:52:24;;;;;;;8.50;5.50;;;18.70;99.90;;;;;;4995442;28;20480;-84